sensor_id;sensor_type;location;lat;lon;timestamp;pressure;altitude;pressure_sealevel;temperature
22269;BMP280;11303;50.772;19.670;2022-10-24T00:00:40;99071.25;;;8.64
22269;BMP280;11303;50.772;19.670;2022-10-24T00:02:42;99072.38;;;8.63
22269;BMP280;11303;50.772;19.670;2022-10-24T00:04:44;99087.84;;;8.61
22269;BMP280;11303;50.772;19.670;2022-10-24T00:06:45;99074.66;;;8.61
22269;BMP280;11303;50.772;19.670;2022-10-24T00:08:47;99067.84;;;8.60
22269;BMP280;11303;50.772;19.670;2022-10-24T00:10:49;99058.00;;;8.61
22269;BMP280;11303;50.772;19.670;2022-10-24T00:12:53;99054.63;;;8.60
22269;BMP280;11303;50.772;19.670;2022-10-24T00:14:54;99056.13;;;8.61
22269;BMP280;11303;50.772;19.670;2022-10-24T00:16:56;99049.72;;;8.59
22269;BMP280;11303;50.772;19.670;2022-10-24T00:18:57;99049.34;;;8.57
22269;BMP280;11303;50.772;19.670;2022-10-24T00:20:59;99041.00;;;8.55
22269;BMP280;11303;50.772;19.670;2022-10-24T00:23:00;99053.09;;;8.52
22269;BMP280;11303;50.772;19.670;2022-10-24T00:25:02;99055.34;;;8.50
22269;BMP280;11303;50.772;19.670;2022-10-24T00:27:04;99057.59;;;8.48
22269;BMP280;11303;50.772;19.670;2022-10-24T00:29:06;99060.97;;;8.42
22269;BMP280;11303;50.772;19.670;2022-10-24T00:31:12;99076.41;;;8.36
22269;BMP280;11303;50.772;19.670;2022-10-24T00:33:14;99067.34;;;8.30
22269;BMP280;11303;50.772;19.670;2022-10-24T00:35:16;99078.25;;;8.25
22269;BMP280;11303;50.772;19.670;2022-10-24T00:37:17;99074.81;;;8.21
22269;BMP280;11303;50.772;19.670;2022-10-24T00:39:24;99067.63;;;8.22
22269;BMP280;11303;50.772;19.670;2022-10-24T00:41:29;99066.97;;;8.35
22269;BMP280;11303;50.772;19.670;2022-10-24T00:43:31;99071.53;;;8.45
22269;BMP280;11303;50.772;19.670;2022-10-24T00:47:38;99053.47;;;8.51
22269;BMP280;11303;50.772;19.670;2022-10-24T00:49:47;99051.22;;;8.56
22269;BMP280;11303;50.772;19.670;2022-10-24T00:51:53;99058.03;;;8.64
22269;BMP280;11303;50.772;19.670;2022-10-24T00:54:00;99056.56;;;8.70
22269;BMP280;11303;50.772;19.670;2022-10-24T00:56:04;99037.66;;;8.72
22269;BMP280;11303;50.772;19.670;2022-10-24T00:58:07;99049.38;;;8.74
22269;BMP280;11303;50.772;19.670;2022-10-24T01:00:13;99052.78;;;8.75
22269;BMP280;11303;50.772;19.670;2022-10-24T01:02:14;99062.25;;;8.76
22269;BMP280;11303;50.772;19.670;2022-10-24T01:04:16;99065.66;;;8.76
22269;BMP280;11303;50.772;19.670;2022-10-24T01:13:27;99055.81;;;8.73
22269;BMP280;11303;50.772;19.670;2022-10-24T01:15:37;99043.72;;;8.76
22269;BMP280;11303;50.772;19.670;2022-10-24T01:17:56;99044.50;;;8.76
22269;BMP280;11303;50.772;19.670;2022-10-24T01:20:21;99050.16;;;8.78
22269;BMP280;11303;50.772;19.670;2022-10-24T01:22:31;99043.75;;;8.79
22269;BMP280;11303;50.772;19.670;2022-10-24T01:27:29;99046.75;;;8.74
22269;BMP280;11303;50.772;19.670;2022-10-24T01:31:53;99037.66;;;8.72
22269;BMP280;11303;50.772;19.670;2022-10-24T01:34:02;99035.44;;;8.77
22269;BMP280;11303;50.772;19.670;2022-10-24T01:36:16;99026.38;;;8.85
22269;BMP280;11303;50.772;19.670;2022-10-24T01:38:51;99024.09;;;8.91
22269;BMP280;11303;50.772;19.670;2022-10-24T01:42:59;99014.28;;;8.95
22269;BMP280;11303;50.772;19.670;2022-10-24T01:45:04;99016.19;;;8.94
22269;BMP280;11303;50.772;19.670;2022-10-24T01:47:11;99007.09;;;8.92
22269;BMP280;11303;50.772;19.670;2022-10-24T01:49:19;99009.41;;;8.90
22269;BMP280;11303;50.772;19.670;2022-10-24T01:51:23;99010.50;;;8.85
22269;BMP280;11303;50.772;19.670;2022-10-24T01:53:28;99009.72;;;8.81
22269;BMP280;11303;50.772;19.670;2022-10-24T01:55:31;99019.56;;;8.77
22269;BMP280;11303;50.772;19.670;2022-10-24T01:57:33;99007.47;;;8.76
22269;BMP280;11303;50.772;19.670;2022-10-24T02:01:37;99018.06;;;8.83
22269;BMP280;11303;50.772;19.670;2022-10-24T02:03:44;99026.38;;;8.85
22269;BMP280;11303;50.772;19.670;2022-10-24T02:05:52;99017.72;;;8.88
22269;BMP280;11303;50.772;19.670;2022-10-24T02:08:03;99017.69;;;8.92
22269;BMP280;11303;50.772;19.670;2022-10-24T02:10:11;99013.94;;;8.93
22269;BMP280;11303;50.772;19.670;2022-10-24T02:12:14;99013.56;;;8.94
22269;BMP280;11303;50.772;19.670;2022-10-24T02:14:21;99002.94;;;8.91
22269;BMP280;11303;50.772;19.670;2022-10-24T02:16:24;99007.88;;;8.89
22269;BMP280;11303;50.772;19.670;2022-10-24T02:18:27;98999.94;;;8.85
22269;BMP280;11303;50.772;19.670;2022-10-24T02:20:34;99007.06;;;8.81
22269;BMP280;11303;50.772;19.670;2022-10-24T02:23:15;99001.38;;;8.72
22269;BMP280;11303;50.772;19.670;2022-10-24T02:25:24;98996.47;;;8.71
22269;BMP280;11303;50.772;19.670;2022-10-24T02:29:50;98981.78;;;8.73
22269;BMP280;11303;50.772;19.670;2022-10-24T02:31:55;98983.28;;;8.74
22269;BMP280;11303;50.772;19.670;2022-10-24T02:33:58;98983.28;;;8.74
22269;BMP280;11303;50.772;19.670;2022-10-24T02:36:02;98989.31;;;8.71
22269;BMP280;11303;50.772;19.670;2022-10-24T02:38:23;98999.50;;;8.69
22269;BMP280;11303;50.772;19.670;2022-10-24T02:40:26;98990.03;;;8.61
22269;BMP280;11303;50.772;19.670;2022-10-24T02:42:28;98997.59;;;8.59
22269;BMP280;11303;50.772;19.670;2022-10-24T02:44:35;98988.91;;;8.62
22269;BMP280;11303;50.772;19.670;2022-10-24T02:46:37;98979.13;;;8.70
22269;BMP280;11303;50.772;19.670;2022-10-24T02:48:42;98981.00;;;8.69
22269;BMP280;11303;50.772;19.670;2022-10-24T02:50:46;98986.28;;;8.73
22269;BMP280;11303;50.772;19.670;2022-10-24T02:52:48;98995.38;;;8.72
22269;BMP280;11303;50.772;19.670;2022-10-24T02:54:50;98996.13;;;8.69
22269;BMP280;11303;50.772;19.670;2022-10-24T02:56:57;98991.59;;;8.66
22269;BMP280;11303;50.772;19.670;2022-10-24T02:59:00;98991.59;;;8.73
22269;BMP280;11303;50.772;19.670;2022-10-24T03:01:02;98992.34;;;8.80
22269;BMP280;11303;50.772;19.670;2022-10-24T03:03:03;98990.88;;;8.86
22269;BMP280;11303;50.772;19.670;2022-10-24T03:05:05;98983.66;;;8.90
22269;BMP280;11303;50.772;19.670;2022-10-24T03:07:07;98972.72;;;8.92
22269;BMP280;11303;50.772;19.670;2022-10-24T03:09:08;98976.13;;;8.92
22269;BMP280;11303;50.772;19.670;2022-10-24T03:11:10;98974.63;;;8.91
22269;BMP280;11303;50.772;19.670;2022-10-24T03:13:12;98971.97;;;8.91
22269;BMP280;11303;50.772;19.670;2022-10-24T03:15:13;98964.81;;;8.88
22269;BMP280;11303;50.772;19.670;2022-10-24T03:17:15;98971.97;;;8.91
22269;BMP280;11303;50.772;19.670;2022-10-24T03:19:16;98962.91;;;8.92
22269;BMP280;11303;50.772;19.670;2022-10-24T03:21:18;98958.00;;;8.94
22269;BMP280;11303;50.772;19.670;2022-10-24T03:23:20;98957.28;;;8.97
22269;BMP280;11303;50.772;19.670;2022-10-24T03:25:22;98950.06;;;8.98
22269;BMP280;11303;50.772;19.670;2022-10-24T03:27:23;98953.09;;;9.00
22269;BMP280;11303;50.772;19.670;2022-10-24T03:29:25;98949.69;;;9.03
22269;BMP280;11303;50.772;19.670;2022-10-24T03:31:27;98946.69;;;9.04
22269;BMP280;11303;50.772;19.670;2022-10-24T03:33:28;98945.94;;;9.07
22269;BMP280;11303;50.772;19.670;2022-10-24T03:35:30;98948.91;;;9.09
22269;BMP280;11303;50.772;19.670;2022-10-24T03:37:32;98946.66;;;9.11
22269;BMP280;11303;50.772;19.670;2022-10-24T03:39:33;98950.44;;;9.14
22269;BMP280;11303;50.772;19.670;2022-10-24T03:41:35;98943.66;;;9.16
22269;BMP280;11303;50.772;19.670;2022-10-24T03:43:36;98944.41;;;9.17
22269;BMP280;11303;50.772;19.670;2022-10-24T03:45:38;98938.72;;;9.18
22269;BMP280;11303;50.772;19.670;2022-10-24T03:47:39;98937.22;;;9.21
22269;BMP280;11303;50.772;19.670;2022-10-24T03:49:41;98922.09;;;9.21
22269;BMP280;11303;50.772;19.670;2022-10-24T03:51:42;98937.22;;;9.24
22269;BMP280;11303;50.772;19.670;2022-10-24T03:53:44;98939.06;;;9.27
22269;BMP280;11303;50.772;19.670;2022-10-24T03:55:46;98944.00;;;9.29
22269;BMP280;11303;50.772;19.670;2022-10-24T03:57:47;98947.78;;;9.35
22269;BMP280;11303;50.772;19.670;2022-10-24T03:59:49;98935.69;;;9.41
22269;BMP280;11303;50.772;19.670;2022-10-24T04:01:50;98940.97;;;9.48
22269;BMP280;11303;50.772;19.670;2022-10-24T04:03:52;98938.69;;;9.50
22269;BMP280;11303;50.772;19.670;2022-10-24T04:05:54;98929.59;;;9.54
22269;BMP280;11303;50.772;19.670;2022-10-24T04:07:55;98933.38;;;9.60
22269;BMP280;11303;50.772;19.670;2022-10-24T04:09:57;98934.91;;;9.61
22269;BMP280;11303;50.772;19.670;2022-10-24T04:11:58;98923.50;;;9.68
22269;BMP280;11303;50.772;19.670;2022-10-24T04:14:00;98929.53;;;9.72
22269;BMP280;11303;50.772;19.670;2022-10-24T04:16:06;98925.38;;;9.78
22269;BMP280;11303;50.772;19.670;2022-10-24T04:18:08;98924.59;;;9.84
22269;BMP280;11303;50.772;19.670;2022-10-24T04:20:10;98918.53;;;9.87
22269;BMP280;11303;50.772;19.670;2022-10-24T04:22:12;98913.59;;;9.89
22269;BMP280;11303;50.772;19.670;2022-10-24T04:24:14;98906.06;;;9.88
22269;BMP280;11303;50.772;19.670;2022-10-24T04:26:16;98903.00;;;9.89
22269;BMP280;11303;50.772;19.670;2022-10-24T04:28:18;98896.19;;;9.88
22269;BMP280;11303;50.772;19.670;2022-10-24T04:30:20;98900.34;;;9.89
22269;BMP280;11303;50.772;19.670;2022-10-24T04:32:21;98895.41;;;9.91
22269;BMP280;11303;50.772;19.670;2022-10-24T04:34:23;98891.97;;;9.98
22269;BMP280;11303;50.772;19.670;2022-10-24T04:36:24;98892.72;;;10.02
22269;BMP280;11303;50.772;19.670;2022-10-24T04:38:26;98901.03;;;10.07
22269;BMP280;11303;50.772;19.670;2022-10-24T04:40:33;98895.34;;;10.12
22269;BMP280;11303;50.772;19.670;2022-10-24T04:42:35;98904.03;;;10.16
22269;BMP280;11303;50.772;19.670;2022-10-24T04:44:36;98907.78;;;10.19
22269;BMP280;11303;50.772;19.670;2022-10-24T04:46:38;98907.41;;;10.20
22269;BMP280;11303;50.772;19.670;2022-10-24T04:48:39;98911.53;;;10.21
22269;BMP280;11303;50.772;19.670;2022-10-24T04:50:45;98909.66;;;10.25
22269;BMP280;11303;50.772;19.670;2022-10-24T04:52:48;98905.09;;;10.29
22269;BMP280;11303;50.772;19.670;2022-10-24T04:54:50;98906.19;;;10.32
22269;BMP280;11303;50.772;19.670;2022-10-24T04:56:51;98898.22;;;10.32
22269;BMP280;11303;50.772;19.670;2022-10-24T04:58:53;98897.13;;;10.29
22269;BMP280;11303;50.772;19.670;2022-10-24T05:00:55;98894.09;;;10.27
22269;BMP280;11303;50.772;19.670;2022-10-24T05:02:56;98896.78;;;10.24
22269;BMP280;11303;50.772;19.670;2022-10-24T05:04:59;98883.56;;;10.20
22269;BMP280;11303;50.772;19.670;2022-10-24T05:07:01;98883.94;;;10.19
22269;BMP280;11303;50.772;19.670;2022-10-24T05:09:03;98877.88;;;10.18
22269;BMP280;11303;50.772;19.670;2022-10-24T05:11:04;98881.69;;;10.21
22269;BMP280;11303;50.772;19.670;2022-10-24T05:13:06;98878.25;;;10.20
22269;BMP280;11303;50.772;19.670;2022-10-24T05:15:08;98880.91;;;10.20
22269;BMP280;11303;50.772;19.670;2022-10-24T05:17:10;98872.56;;;10.18
22269;BMP280;11303;50.772;19.670;2022-10-24T05:19:11;98875.22;;;10.18
22269;BMP280;11303;50.772;19.670;2022-10-24T05:21:13;98871.06;;;10.17
22269;BMP280;11303;50.772;19.670;2022-10-24T05:23:14;98877.88;;;10.18
22269;BMP280;11303;50.772;19.670;2022-10-24T05:25:16;98892.28;;;10.17
22269;BMP280;11303;50.772;19.670;2022-10-24T05:27:18;98893.03;;;10.14
22269;BMP280;11303;50.772;19.670;2022-10-24T05:29:25;98887.38;;;10.12
22269;BMP280;11303;50.772;19.670;2022-10-24T05:31:26;98893.06;;;10.11
22269;BMP280;11303;50.772;19.670;2022-10-24T05:33:28;98880.59;;;10.11
22269;BMP280;11303;50.772;19.670;2022-10-24T05:35:29;98876.78;;;10.12
22269;BMP280;11303;50.772;19.670;2022-10-24T05:37:31;98886.25;;;10.13
22269;BMP280;11303;50.772;19.670;2022-10-24T05:39:32;98880.94;;;10.13
22269;BMP280;11303;50.772;19.670;2022-10-24T05:41:34;98880.94;;;10.13
22269;BMP280;11303;50.772;19.670;2022-10-24T05:43:36;98890.38;;;10.14
22269;BMP280;11303;50.772;19.670;2022-10-24T05:45:37;98885.09;;;10.14
22269;BMP280;11303;50.772;19.670;2022-10-24T05:47:39;98888.47;;;10.18
22269;BMP280;11303;50.772;19.670;2022-10-24T05:49:40;98899.84;;;10.19
22269;BMP280;11303;50.772;19.670;2022-10-24T05:51:42;98899.09;;;10.18
22269;BMP280;11303;50.772;19.670;2022-10-24T05:53:43;98907.38;;;10.24
22269;BMP280;11303;50.772;19.670;2022-10-24T05:55:45;98910.00;;;10.27
22269;BMP280;11303;50.772;19.670;2022-10-24T05:57:46;98908.06;;;10.35
22269;BMP280;11303;50.772;19.670;2022-10-24T05:59:48;98898.56;;;10.41
22269;BMP280;11303;50.772;19.670;2022-10-24T06:01:50;98902.72;;;10.45
22269;BMP280;11303;50.772;19.670;2022-10-24T06:03:52;98911.34;;;10.56
22269;BMP280;11303;50.772;19.670;2022-10-24T06:05:53;98908.63;;;10.67
22269;BMP280;11303;50.772;19.670;2022-10-24T06:07:57;98908.19;;;10.75
22269;BMP280;11303;50.772;19.670;2022-10-24T06:10:00;98907.31;;;10.85
22269;BMP280;11303;50.772;19.670;2022-10-24T06:12:02;98912.56;;;10.92
22269;BMP280;11303;50.772;19.670;2022-10-24T06:14:04;98912.47;;;11.06
22269;BMP280;11303;50.772;19.670;2022-10-24T06:16:07;98909.59;;;11.27
22269;BMP280;11303;50.772;19.670;2022-10-24T06:18:09;98906.31;;;11.50
22269;BMP280;11303;50.772;19.670;2022-10-24T06:20:11;98908.34;;;11.72
22269;BMP280;11303;50.772;19.670;2022-10-24T06:22:12;98914.09;;;11.97
22269;BMP280;11303;50.772;19.670;2022-10-24T06:24:14;98903.44;;;12.27
22269;BMP280;11303;50.772;19.670;2022-10-24T06:26:15;98916.97;;;12.59
22269;BMP280;11303;50.772;19.670;2022-10-24T06:28:23;98934.69;;;12.92
22269;BMP280;11303;50.772;19.670;2022-10-24T06:30:25;98930.06;;;13.19
22269;BMP280;11303;50.772;19.670;2022-10-24T06:32:26;98943.31;;;13.42
22269;BMP280;11303;50.772;19.670;2022-10-24T06:34:28;98929.25;;;13.61
22269;BMP280;11303;50.772;19.670;2022-10-24T06:36:30;98925.56;;;13.75
22269;BMP280;11303;50.772;19.670;2022-10-24T06:38:32;98921.50;;;13.86
22269;BMP280;11303;50.772;19.670;2022-10-24T06:40:35;98938.72;;;14.01
22269;BMP280;11303;50.772;19.670;2022-10-24T06:42:37;98950.88;;;14.18
22269;BMP280;11303;50.772;19.670;2022-10-24T06:44:39;98940.09;;;14.25
22269;BMP280;11303;50.772;19.670;2022-10-24T06:46:40;98942.22;;;14.30
22269;BMP280;11303;50.772;19.670;2022-10-24T06:48:42;98938.72;;;14.33
22269;BMP280;11303;50.772;19.670;2022-10-24T06:50:43;98938.59;;;14.40
22269;BMP280;11303;50.772;19.670;2022-10-24T06:52:45;98941.72;;;14.51
22269;BMP280;11303;50.772;19.670;2022-10-24T06:54:46;98944.41;;;14.67
22269;BMP280;11303;50.772;19.670;2022-10-24T06:56:49;98956.56;;;14.84
22269;BMP280;11303;50.772;19.670;2022-10-24T06:58:51;98946.00;;;15.09
22269;BMP280;11303;50.772;19.670;2022-10-24T07:00:53;98939.59;;;15.35
22269;BMP280;11303;50.772;19.670;2022-10-24T07:02:54;98938.69;;;15.54
22269;BMP280;11303;50.772;19.670;2022-10-24T07:04:57;98929.50;;;15.68
22269;BMP280;11303;50.772;19.670;2022-10-24T07:06:58;98936.75;;;15.67
22269;BMP280;11303;50.772;19.670;2022-10-24T07:09:01;98934.97;;;15.77
22269;BMP280;11303;50.772;19.670;2022-10-24T07:11:03;98926.84;;;15.93
22269;BMP280;11303;50.772;19.670;2022-10-24T07:13:04;98921.25;;;16.24
22269;BMP280;11303;50.772;19.670;2022-10-24T07:15:06;98901.63;;;16.40
22269;BMP280;11303;50.772;19.670;2022-10-24T07:17:08;98920.72;;;16.42
22269;BMP280;11303;50.772;19.670;2022-10-24T07:19:10;98933.25;;;16.32
22269;BMP280;11303;50.772;19.670;2022-10-24T07:21:23;98940.44;;;16.23
22269;BMP280;11303;50.772;19.670;2022-10-24T07:23:25;98924.16;;;16.05
22269;BMP280;11303;50.772;19.670;2022-10-24T07:25:27;98923.09;;;15.90
22269;BMP280;11303;50.772;19.670;2022-10-24T07:27:28;98907.78;;;15.78
22269;BMP280;11303;50.772;19.670;2022-10-24T07:29:30;98901.25;;;15.67
22269;BMP280;11303;50.772;19.670;2022-10-24T07:31:34;98913.69;;;15.61
22269;BMP280;11303;50.772;19.670;2022-10-24T07:33:36;98912.03;;;15.51
22269;BMP280;11303;50.772;19.670;2022-10-24T07:35:41;98902.94;;;15.48
22269;BMP280;11303;50.772;19.670;2022-10-24T07:37:43;98896.22;;;15.44
22269;BMP280;11303;50.772;19.670;2022-10-24T07:39:45;98896.72;;;15.39
22269;BMP280;11303;50.772;19.670;2022-10-24T07:41:47;98901.97;;;15.42
22269;BMP280;11303;50.772;19.670;2022-10-24T07:43:49;98911.72;;;15.49
22269;BMP280;11303;50.772;19.670;2022-10-24T07:45:50;98911.84;;;15.58
22269;BMP280;11303;50.772;19.670;2022-10-24T07:47:52;98913.25;;;15.62
22269;BMP280;11303;50.772;19.670;2022-10-24T07:49:54;98908.97;;;15.65
22269;BMP280;11303;50.772;19.670;2022-10-24T07:51:57;98914.63;;;15.67
22269;BMP280;11303;50.772;19.670;2022-10-24T07:53:59;98922.44;;;15.74
22269;BMP280;11303;50.772;19.670;2022-10-24T07:56:01;98916.47;;;15.82
22269;BMP280;11303;50.772;19.670;2022-10-24T07:58:03;98925.78;;;15.90
22269;BMP280;11303;50.772;19.670;2022-10-24T08:00:05;98911.31;;;16.00
22269;BMP280;11303;50.772;19.670;2022-10-24T08:02:09;98907.28;;;16.08
22269;BMP280;11303;50.772;19.670;2022-10-24T08:04:11;98906.38;;;16.23
22269;BMP280;11303;50.772;19.670;2022-10-24T08:06:16;98905.53;;;16.39
22269;BMP280;11303;50.772;19.670;2022-10-24T08:08:18;98912.13;;;16.47
22269;BMP280;11303;50.772;19.670;2022-10-24T08:10:37;98902.47;;;16.62
22269;BMP280;11303;50.772;19.670;2022-10-24T08:12:39;98905.50;;;16.73
22269;BMP280;11303;50.772;19.670;2022-10-24T08:14:41;98910.09;;;16.72
22269;BMP280;11303;50.772;19.670;2022-10-24T08:16:42;98905.59;;;16.82
22269;BMP280;11303;50.772;19.670;2022-10-24T08:18:44;98905.47;;;16.85
22269;BMP280;11303;50.772;19.670;2022-10-24T08:20:55;98900.75;;;16.89
22269;BMP280;11303;50.772;19.670;2022-10-24T08:22:57;98905.66;;;16.91
22269;BMP280;11303;50.772;19.670;2022-10-24T08:24:59;98909.84;;;17.13
22269;BMP280;11303;50.772;19.670;2022-10-24T08:27:01;98903.84;;;17.31
22269;BMP280;11303;50.772;19.670;2022-10-24T08:29:03;98900.03;;;17.50
22269;BMP280;11303;50.772;19.670;2022-10-24T08:31:14;98898.66;;;17.67
22269;BMP280;11303;50.772;19.670;2022-10-24T08:33:16;98908.53;;;17.79
22269;BMP280;11303;50.772;19.670;2022-10-24T08:35:19;98908.56;;;17.88
22269;BMP280;11303;50.772;19.670;2022-10-24T08:37:22;98916.94;;;17.90
22269;BMP280;11303;50.772;19.670;2022-10-24T08:39:24;98911.38;;;17.84
22269;BMP280;11303;50.772;19.670;2022-10-24T08:41:36;98918.06;;;17.80
22269;BMP280;11303;50.772;19.670;2022-10-24T08:43:38;98920.63;;;17.83
22269;BMP280;11303;50.772;19.670;2022-10-24T08:45:46;98910.66;;;17.84
22269;BMP280;11303;50.772;19.670;2022-10-24T08:48:01;98913.94;;;17.88
22269;BMP280;11303;50.772;19.670;2022-10-24T08:50:22;98911.28;;;17.97
22269;BMP280;11303;50.772;19.670;2022-10-24T08:54:38;98905.81;;;18.18
22269;BMP280;11303;50.772;19.670;2022-10-24T08:56:40;98918.78;;;18.20
22269;BMP280;11303;50.772;19.670;2022-10-24T08:58:43;98913.13;;;18.18
22269;BMP280;11303;50.772;19.670;2022-10-24T09:00:48;98930.38;;;18.08
22269;BMP280;11303;50.772;19.670;2022-10-24T09:03:04;98925.28;;;18.01
22269;BMP280;11303;50.772;19.670;2022-10-24T09:05:20;98930.34;;;17.90
22269;BMP280;11303;50.772;19.670;2022-10-24T09:07:23;98924.97;;;17.81
22269;BMP280;11303;50.772;19.670;2022-10-24T09:09:38;98919.25;;;17.79
22269;BMP280;11303;50.772;19.670;2022-10-24T09:11:50;98927.31;;;17.79
22269;BMP280;11303;50.772;19.670;2022-10-24T09:13:52;98917.56;;;17.72
22269;BMP280;11303;50.772;19.670;2022-10-24T09:15:55;98909.09;;;17.74
22269;BMP280;11303;50.772;19.670;2022-10-24T09:17:58;98904.09;;;17.85
22269;BMP280;11303;50.772;19.670;2022-10-24T09:20:20;98899.03;;;17.96
22269;BMP280;11303;50.772;19.670;2022-10-24T09:22:24;98905.06;;;18.09
22269;BMP280;11303;50.772;19.670;2022-10-24T09:24:42;98926.25;;;18.25
22269;BMP280;11303;50.772;19.670;2022-10-24T09:26:45;98922.41;;;18.44
22269;BMP280;11303;50.772;19.670;2022-10-24T09:28:46;98923.16;;;18.62
22269;BMP280;11303;50.772;19.670;2022-10-24T09:30:49;98922.41;;;18.71
22269;BMP280;11303;50.772;19.670;2022-10-24T09:32:53;98922.13;;;18.78
22269;BMP280;11303;50.772;19.670;2022-10-24T09:34:58;98926.59;;;18.81
22269;BMP280;11303;50.772;19.670;2022-10-24T09:37:01;98931.38;;;18.86
22269;BMP280;11303;50.772;19.670;2022-10-24T09:39:27;98931.22;;;18.89
22269;BMP280;11303;50.772;19.670;2022-10-24T09:41:29;98937.34;;;18.90
22269;BMP280;11303;50.772;19.670;2022-10-24T09:45:45;98937.94;;;18.85
22269;BMP280;11303;50.772;19.670;2022-10-24T09:47:55;98933.09;;;19.33
22269;BMP280;11303;50.772;19.670;2022-10-24T09:49:57;98925.00;;;19.75
22269;BMP280;11303;50.772;19.670;2022-10-24T09:52:14;98915.28;;;20.01
22269;BMP280;11303;50.772;19.670;2022-10-24T09:56:18;98910.19;;;19.79
22269;BMP280;11303;50.772;19.670;2022-10-24T09:58:24;98920.28;;;19.93
22269;BMP280;11303;50.772;19.670;2022-10-24T10:00:34;98913.34;;;20.25
22269;BMP280;11303;50.772;19.670;2022-10-24T10:02:36;98901.81;;;20.62
22269;BMP280;11303;50.772;19.670;2022-10-24T10:04:39;98916.34;;;20.94
22269;BMP280;11303;50.772;19.670;2022-10-24T10:06:43;98910.22;;;21.08
22269;BMP280;11303;50.772;19.670;2022-10-24T10:08:53;98895.78;;;21.25
22269;BMP280;11303;50.772;19.670;2022-10-24T10:11:06;98897.06;;;21.44
22269;BMP280;11303;50.772;19.670;2022-10-24T10:15:23;98891.72;;;22.04
22269;BMP280;11303;50.772;19.670;2022-10-24T10:17:28;98896.59;;;22.45
22269;BMP280;11303;50.772;19.670;2022-10-24T10:19:38;98895.72;;;22.85
22269;BMP280;11303;50.772;19.670;2022-10-24T10:22:01;98899.94;;;22.86
22269;BMP280;11303;50.772;19.670;2022-10-24T10:24:23;98894.84;;;22.68
22269;BMP280;11303;50.772;19.670;2022-10-24T10:26:40;98905.03;;;22.53
22269;BMP280;11303;50.772;19.670;2022-10-24T10:29:05;98904.75;;;22.51
22269;BMP280;11303;50.772;19.670;2022-10-24T10:31:08;98909.09;;;22.43
22269;BMP280;11303;50.772;19.670;2022-10-24T10:33:19;98911.09;;;22.48
22269;BMP280;11303;50.772;19.670;2022-10-24T10:35:28;98916.94;;;22.21
22269;BMP280;11303;50.772;19.670;2022-10-24T10:37:39;98908.34;;;22.17
22269;BMP280;11303;50.772;19.670;2022-10-24T10:42:18;98907.63;;;22.02
22269;BMP280;11303;50.772;19.670;2022-10-24T10:44:46;98911.44;;;21.90
22269;BMP280;11303;50.772;19.670;2022-10-24T10:47:00;98915.19;;;21.78
22269;BMP280;11303;50.772;19.670;2022-10-24T10:51:34;98898.44;;;22.14
22269;BMP280;11303;50.772;19.670;2022-10-24T10:53:49;98901.81;;;22.29
22269;BMP280;11303;50.772;19.670;2022-10-24T11:05:34;98885.69;;;22.60
22269;BMP280;11303;50.772;19.670;2022-10-24T11:07:48;98876.44;;;22.72
22269;BMP280;11303;50.772;19.670;2022-10-24T11:09:55;98884.47;;;22.61
22269;BMP280;11303;50.772;19.670;2022-10-24T11:12:12;98882.72;;;22.58
22269;BMP280;11303;50.772;19.670;2022-10-24T11:14:28;98868.50;;;22.63
22269;BMP280;11303;50.772;19.670;2022-10-24T11:16:32;98874.91;;;22.40
22269;BMP280;11303;50.772;19.670;2022-10-24T11:18:36;98867.31;;;22.18
22269;BMP280;11303;50.772;19.670;2022-10-24T11:20:43;98865.34;;;21.93
22269;BMP280;11303;50.772;19.670;2022-10-24T11:22:54;98871.31;;;21.63
22269;BMP280;11303;50.772;19.670;2022-10-24T11:25:02;98869.53;;;21.40
22269;BMP280;11303;50.772;19.670;2022-10-24T11:27:11;98863.31;;;21.34
22269;BMP280;11303;50.772;19.670;2022-10-24T11:29:28;98865.06;;;21.37
22269;BMP280;11303;50.772;19.670;2022-10-24T11:31:35;98859.09;;;21.33
22269;BMP280;11303;50.772;19.670;2022-10-24T11:34:10;98864.16;;;21.40
22269;BMP280;11303;50.772;19.670;2022-10-24T11:36:20;98860.38;;;21.52
22269;BMP280;11303;50.772;19.670;2022-10-24T11:38:24;98860.59;;;21.68
22269;BMP280;11303;50.772;19.670;2022-10-24T11:40:28;98849.44;;;21.81
22269;BMP280;11303;50.772;19.670;2022-10-24T11:44:54;98852.97;;;22.07
22269;BMP280;11303;50.772;19.670;2022-10-24T11:47:03;98858.22;;;21.96
22269;BMP280;11303;50.772;19.670;2022-10-24T11:49:17;98849.59;;;21.92
22269;BMP280;11303;50.772;19.670;2022-10-24T11:51:32;98841.78;;;21.74
22269;BMP280;11303;50.772;19.670;2022-10-24T11:55:42;98849.97;;;21.85
22269;BMP280;11303;50.772;19.670;2022-10-24T11:57:51;98846.00;;;21.60
22269;BMP280;11303;50.772;19.670;2022-10-24T11:59:54;98847.97;;;21.40
22269;BMP280;11303;50.772;19.670;2022-10-24T12:02:58;98848.53;;;21.15
22269;BMP280;11303;50.772;19.670;2022-10-24T12:06:57;98842.47;;;21.00
22269;BMP280;11303;50.772;19.670;2022-10-24T12:09:59;98848.00;;;21.11
22269;BMP280;11303;50.772;19.670;2022-10-24T12:14:31;98843.53;;;21.08
22269;BMP280;11303;50.772;19.670;2022-10-24T12:17:00;98847.06;;;21.14
22269;BMP280;11303;50.772;19.670;2022-10-24T12:19:14;98838.31;;;21.19
22269;BMP280;11303;50.772;19.670;2022-10-24T12:21:21;98834.56;;;21.31
22269;BMP280;11303;50.772;19.670;2022-10-24T12:23:27;98835.81;;;21.50
22269;BMP280;11303;50.772;19.670;2022-10-24T12:25:31;98831.63;;;21.69
22269;BMP280;11303;50.772;19.670;2022-10-24T12:27:39;98827.75;;;21.70
22269;BMP280;11303;50.772;19.670;2022-10-24T12:29:41;98814.13;;;21.64
22269;BMP280;11303;50.772;19.670;2022-10-24T12:31:44;98819.97;;;21.57
22269;BMP280;11303;50.772;19.670;2022-10-24T12:34:28;98820.38;;;21.50
22269;BMP280;11303;50.772;19.670;2022-10-24T12:36:08;98813.81;;;21.57
22269;BMP280;11303;50.772;19.670;2022-10-24T12:45:26;98813.41;;;21.84
22269;BMP280;11303;50.772;19.670;2022-10-24T12:47:39;98804.34;;;22.07
22269;BMP280;11303;50.772;19.670;2022-10-24T12:49:41;98802.13;;;22.05
22269;BMP280;11303;50.772;19.670;2022-10-24T12:51:42;98794.63;;;21.95
22269;BMP280;11303;50.772;19.670;2022-10-24T12:56:15;98803.97;;;21.74
22269;BMP280;11303;50.772;19.670;2022-10-24T13:00:29;98793.28;;;21.45